sensor_id;sensor_type;location;lat;lon;timestamp;P1;durP1;ratioP1;P2;durP2;ratioP2
59824;SDS011;45703;50.898;6.054;2022-08-19T00:01:22;16.30;;;12.85;;
59824;SDS011;45703;50.898;6.054;2022-08-19T00:03:48;16.40;;;13.77;;
59824;SDS011;45703;50.898;6.054;2022-08-19T00:06:14;17.17;;;14.02;;
59824;SDS011;45703;50.898;6.054;2022-08-19T00:08:40;16.10;;;12.95;;
59824;SDS011;45703;50.898;6.054;2022-08-19T00:11:05;14.38;;;12.13;;
59824;SDS011;45703;50.898;6.054;2022-08-19T00:13:31;14.45;;;11.95;;
59824;SDS011;45703;50.898;6.054;2022-08-19T00:15:57;13.82;;;11.55;;
59824;SDS011;45703;50.898;6.054;2022-08-19T00:18:23;13.90;;;11.55;;
59824;SDS011;45703;50.898;6.054;2022-08-19T00:20:49;13.68;;;11.00;;
59824;SDS011;45703;50.898;6.054;2022-08-19T00:23:14;13.65;;;10.82;;
59824;SDS011;45703;50.898;6.054;2022-08-19T00:25:40;14.20;;;11.30;;
59824;SDS011;45703;50.898;6.054;2022-08-19T00:28:06;14.32;;;11.98;;
59824;SDS011;45703;50.898;6.054;2022-08-19T00:30:31;14.35;;;11.95;;
59824;SDS011;45703;50.898;6.054;2022-08-19T00:32:57;13.95;;;11.55;;
59824;SDS011;45703;50.898;6.054;2022-08-19T00:35:23;14.13;;;11.70;;
59824;SDS011;45703;50.898;6.054;2022-08-19T00:37:49;15.13;;;12.13;;
59824;SDS011;45703;50.898;6.054;2022-08-19T00:40:16;16.38;;;13.00;;
59824;SDS011;45703;50.898;6.054;2022-08-19T00:42:43;15.82;;;13.57;;
59824;SDS011;45703;50.898;6.054;2022-08-19T00:45:12;17.90;;;13.73;;
59824;SDS011;45703;50.898;6.054;2022-08-19T00:47:43;18.02;;;15.07;;
59824;SDS011;45703;50.898;6.054;2022-08-19T00:50:11;16.88;;;14.15;;
59824;SDS011;45703;50.898;6.054;2022-08-19T00:52:41;17.90;;;13.60;;
59824;SDS011;45703;50.898;6.054;2022-08-19T00:55:10;15.52;;;13.23;;
59824;SDS011;45703;50.898;6.054;2022-08-19T00:57:40;15.63;;;13.45;;
59824;SDS011;45703;50.898;6.054;2022-08-19T01:00:10;16.88;;;13.70;;
59824;SDS011;45703;50.898;6.054;2022-08-19T01:02:38;16.88;;;13.63;;
59824;SDS011;45703;50.898;6.054;2022-08-19T01:05:07;17.42;;;13.75;;
59824;SDS011;45703;50.898;6.054;2022-08-19T01:07:35;18.38;;;13.98;;
59824;SDS011;45703;50.898;6.054;2022-08-19T01:10:04;18.65;;;14.27;;
59824;SDS011;45703;50.898;6.054;2022-08-19T01:12:32;18.08;;;14.90;;
59824;SDS011;45703;50.898;6.054;2022-08-19T01:14:58;17.85;;;14.98;;
59824;SDS011;45703;50.898;6.054;2022-08-19T01:17:24;17.58;;;13.75;;
59824;SDS011;45703;50.898;6.054;2022-08-19T01:19:50;17.40;;;14.52;;
59824;SDS011;45703;50.898;6.054;2022-08-19T01:22:29;18.02;;;14.65;;
59824;SDS011;45703;50.898;6.054;2022-08-19T01:25:00;17.33;;;14.50;;
59824;SDS011;45703;50.898;6.054;2022-08-19T01:27:26;18.90;;;14.52;;
59824;SDS011;45703;50.898;6.054;2022-08-19T01:29:51;17.00;;;13.95;;
59824;SDS011;45703;50.898;6.054;2022-08-19T01:32:17;18.20;;;14.32;;
59824;SDS011;45703;50.898;6.054;2022-08-19T01:34:44;17.98;;;13.18;;
59824;SDS011;45703;50.898;6.054;2022-08-19T01:37:11;18.83;;;14.02;;
59824;SDS011;45703;50.898;6.054;2022-08-19T01:39:39;16.95;;;13.30;;
59824;SDS011;45703;50.898;6.054;2022-08-19T01:42:07;17.13;;;14.10;;
59824;SDS011;45703;50.898;6.054;2022-08-19T01:44:38;16.77;;;13.90;;
59824;SDS011;45703;50.898;6.054;2022-08-19T01:47:06;17.95;;;14.15;;
59824;SDS011;45703;50.898;6.054;2022-08-19T01:49:31;18.45;;;13.13;;
59824;SDS011;45703;50.898;6.054;2022-08-19T01:51:58;18.27;;;14.75;;
59824;SDS011;45703;50.898;6.054;2022-08-19T01:54:25;17.00;;;14.10;;
59824;SDS011;45703;50.898;6.054;2022-08-19T01:56:51;17.33;;;13.55;;
59824;SDS011;45703;50.898;6.054;2022-08-19T01:59:21;17.20;;;14.23;;
59824;SDS011;45703;50.898;6.054;2022-08-19T02:01:49;18.98;;;14.38;;
59824;SDS011;45703;50.898;6.054;2022-08-19T02:04:14;19.02;;;14.77;;
59824;SDS011;45703;50.898;6.054;2022-08-19T02:06:40;18.63;;;15.43;;
59824;SDS011;45703;50.898;6.054;2022-08-19T02:09:07;18.13;;;14.35;;
59824;SDS011;45703;50.898;6.054;2022-08-19T02:11:34;18.83;;;15.15;;
59824;SDS011;45703;50.898;6.054;2022-08-19T02:14:02;20.67;;;15.57;;
59824;SDS011;45703;50.898;6.054;2022-08-19T02:16:30;21.33;;;14.50;;
59824;SDS011;45703;50.898;6.054;2022-08-19T02:18:55;19.40;;;15.68;;
59824;SDS011;45703;50.898;6.054;2022-08-19T02:21:21;18.63;;;14.90;;
59824;SDS011;45703;50.898;6.054;2022-08-19T02:23:48;19.13;;;14.98;;
59824;SDS011;45703;50.898;6.054;2022-08-19T02:26:14;20.35;;;15.32;;
59824;SDS011;45703;50.898;6.054;2022-08-19T02:28:40;19.38;;;14.73;;
59824;SDS011;45703;50.898;6.054;2022-08-19T02:31:10;18.95;;;15.73;;
59824;SDS011;45703;50.898;6.054;2022-08-19T02:33:36;19.17;;;15.80;;
59824;SDS011;45703;50.898;6.054;2022-08-19T02:36:03;21.77;;;16.63;;
59824;SDS011;45703;50.898;6.054;2022-08-19T02:38:30;20.95;;;16.55;;
59824;SDS011;45703;50.898;6.054;2022-08-19T02:41:00;19.33;;;15.38;;
59824;SDS011;45703;50.898;6.054;2022-08-19T02:43:29;20.50;;;16.08;;
59824;SDS011;45703;50.898;6.054;2022-08-19T02:45:55;21.55;;;17.00;;
59824;SDS011;45703;50.898;6.054;2022-08-19T02:48:21;22.40;;;16.77;;
59824;SDS011;45703;50.898;6.054;2022-08-19T02:50:49;19.95;;;16.45;;
59824;SDS011;45703;50.898;6.054;2022-08-19T02:53:18;21.83;;;17.65;;
59824;SDS011;45703;50.898;6.054;2022-08-19T02:55:45;23.10;;;18.75;;
59824;SDS011;45703;50.898;6.054;2022-08-19T02:58:11;24.90;;;19.75;;
59824;SDS011;45703;50.898;6.054;2022-08-19T03:00:40;24.02;;;19.27;;
59824;SDS011;45703;50.898;6.054;2022-08-19T03:03:16;25.13;;;20.25;;
59824;SDS011;45703;50.898;6.054;2022-08-19T03:05:42;25.23;;;20.17;;
59824;SDS011;45703;50.898;6.054;2022-08-19T03:08:09;26.83;;;20.65;;
59824;SDS011;45703;50.898;6.054;2022-08-19T03:10:44;27.00;;;20.65;;
59824;SDS011;45703;50.898;6.054;2022-08-19T03:13:12;29.30;;;22.15;;
59824;SDS011;45703;50.898;6.054;2022-08-19T03:15:41;28.60;;;22.77;;
59824;SDS011;45703;50.898;6.054;2022-08-19T03:18:08;29.73;;;23.27;;
59824;SDS011;45703;50.898;6.054;2022-08-19T03:20:39;29.25;;;23.55;;
59824;SDS011;45703;50.898;6.054;2022-08-19T03:23:05;26.98;;;21.40;;
59824;SDS011;45703;50.898;6.054;2022-08-19T03:25:31;28.15;;;22.63;;
59824;SDS011;45703;50.898;6.054;2022-08-19T03:28:02;31.38;;;24.75;;
59824;SDS011;45703;50.898;6.054;2022-08-19T03:30:27;29.30;;;22.77;;
59824;SDS011;45703;50.898;6.054;2022-08-19T03:32:53;30.50;;;24.30;;
59824;SDS011;45703;50.898;6.054;2022-08-19T03:35:18;29.25;;;23.17;;
59824;SDS011;45703;50.898;6.054;2022-08-19T03:37:45;30.20;;;23.83;;
59824;SDS011;45703;50.898;6.054;2022-08-19T03:40:10;27.88;;;22.23;;
59824;SDS011;45703;50.898;6.054;2022-08-19T03:42:36;33.67;;;25.00;;
59824;SDS011;45703;50.898;6.054;2022-08-19T03:45:02;31.00;;;24.23;;
59824;SDS011;45703;50.898;6.054;2022-08-19T03:47:27;31.58;;;24.83;;
59824;SDS011;45703;50.898;6.054;2022-08-19T03:49:53;28.92;;;22.92;;
59824;SDS011;45703;50.898;6.054;2022-08-19T03:52:18;32.97;;;23.92;;
59824;SDS011;45703;50.898;6.054;2022-08-19T03:54:44;31.73;;;24.40;;
59824;SDS011;45703;50.898;6.054;2022-08-19T03:57:09;34.85;;;25.75;;
59824;SDS011;45703;50.898;6.054;2022-08-19T03:59:36;29.98;;;22.50;;
59824;SDS011;45703;50.898;6.054;2022-08-19T04:02:04;33.80;;;24.25;;
59824;SDS011;45703;50.898;6.054;2022-08-19T04:04:36;31.33;;;24.50;;
59824;SDS011;45703;50.898;6.054;2022-08-19T04:07:05;32.83;;;24.33;;
59824;SDS011;45703;50.898;6.054;2022-08-19T04:09:32;32.78;;;24.95;;
59824;SDS011;45703;50.898;6.054;2022-08-19T04:11:59;34.85;;;26.05;;
59824;SDS011;45703;50.898;6.054;2022-08-19T04:14:25;33.33;;;25.75;;
59824;SDS011;45703;50.898;6.054;2022-08-19T04:16:54;37.45;;;26.85;;
59824;SDS011;45703;50.898;6.054;2022-08-19T04:19:20;35.78;;;27.25;;
59824;SDS011;45703;50.898;6.054;2022-08-19T04:21:47;35.13;;;25.83;;
59824;SDS011;45703;50.898;6.054;2022-08-19T04:24:15;36.33;;;26.73;;
59824;SDS011;45703;50.898;6.054;2022-08-19T04:26:41;33.90;;;25.65;;
59824;SDS011;45703;50.898;6.054;2022-08-19T04:29:09;36.35;;;25.13;;
59824;SDS011;45703;50.898;6.054;2022-08-19T04:31:50;42.95;;;27.30;;
59824;SDS011;45703;50.898;6.054;2022-08-19T04:34:17;37.28;;;27.27;;
59824;SDS011;45703;50.898;6.054;2022-08-19T04:36:47;38.05;;;26.88;;
59824;SDS011;45703;50.898;6.054;2022-08-19T04:39:14;39.15;;;26.55;;
59824;SDS011;45703;50.898;6.054;2022-08-19T04:41:41;33.28;;;24.80;;
59824;SDS011;45703;50.898;6.054;2022-08-19T04:44:25;36.65;;;25.83;;
59824;SDS011;45703;50.898;6.054;2022-08-19T04:46:52;42.03;;;27.27;;
59824;SDS011;45703;50.898;6.054;2022-08-19T04:49:19;37.95;;;25.85;;
59824;SDS011;45703;50.898;6.054;2022-08-19T04:51:47;40.63;;;27.98;;
59824;SDS011;45703;50.898;6.054;2022-08-19T04:54:13;46.55;;;30.98;;
59824;SDS011;45703;50.898;6.054;2022-08-19T04:56:39;39.00;;;27.58;;
59824;SDS011;45703;50.898;6.054;2022-08-19T04:59:05;41.35;;;26.80;;
59824;SDS011;45703;50.898;6.054;2022-08-19T05:01:31;42.58;;;28.48;;
59824;SDS011;45703;50.898;6.054;2022-08-19T05:03:59;41.13;;;27.42;;
59824;SDS011;45703;50.898;6.054;2022-08-19T05:06:29;41.80;;;28.35;;
59824;SDS011;45703;50.898;6.054;2022-08-19T05:08:56;41.22;;;27.40;;
59824;SDS011;45703;50.898;6.054;2022-08-19T05:11:22;40.30;;;26.80;;
59824;SDS011;45703;50.898;6.054;2022-08-19T05:13:53;42.08;;;27.98;;
59824;SDS011;45703;50.898;6.054;2022-08-19T05:16:20;40.70;;;28.27;;
59824;SDS011;45703;50.898;6.054;2022-08-19T05:18:46;41.78;;;28.58;;
59824;SDS011;45703;50.898;6.054;2022-08-19T05:21:31;41.40;;;27.88;;
59824;SDS011;45703;50.898;6.054;2022-08-19T05:24:16;41.65;;;26.63;;
59824;SDS011;45703;50.898;6.054;2022-08-19T05:26:43;39.60;;;27.00;;
59824;SDS011;45703;50.898;6.054;2022-08-19T05:29:11;40.33;;;26.40;;
59824;SDS011;45703;50.898;6.054;2022-08-19T05:31:38;39.38;;;27.40;;
59824;SDS011;45703;50.898;6.054;2022-08-19T05:34:04;39.40;;;26.15;;
59824;SDS011;45703;50.898;6.054;2022-08-19T05:36:33;41.42;;;26.73;;
59824;SDS011;45703;50.898;6.054;2022-08-19T05:39:02;40.40;;;26.15;;
59824;SDS011;45703;50.898;6.054;2022-08-19T05:41:29;42.63;;;26.98;;
59824;SDS011;45703;50.898;6.054;2022-08-19T05:43:56;42.72;;;26.75;;
59824;SDS011;45703;50.898;6.054;2022-08-19T05:46:22;40.83;;;26.52;;
59824;SDS011;45703;50.898;6.054;2022-08-19T05:48:48;37.03;;;25.00;;
59824;SDS011;45703;50.898;6.054;2022-08-19T05:51:13;39.22;;;25.20;;
59824;SDS011;45703;50.898;6.054;2022-08-19T05:53:41;39.63;;;25.60;;
59824;SDS011;45703;50.898;6.054;2022-08-19T05:56:08;40.92;;;26.15;;
59824;SDS011;45703;50.898;6.054;2022-08-19T05:58:37;40.75;;;27.73;;
59824;SDS011;45703;50.898;6.054;2022-08-19T06:01:04;41.50;;;26.60;;
59824;SDS011;45703;50.898;6.054;2022-08-19T06:03:34;41.03;;;25.25;;
59824;SDS011;45703;50.898;6.054;2022-08-19T06:06:02;36.75;;;24.75;;
59824;SDS011;45703;50.898;6.054;2022-08-19T06:08:28;41.03;;;26.67;;
59824;SDS011;45703;50.898;6.054;2022-08-19T06:10:54;42.08;;;26.77;;
59824;SDS011;45703;50.898;6.054;2022-08-19T06:13:20;38.78;;;25.15;;
59824;SDS011;45703;50.898;6.054;2022-08-19T06:15:47;38.88;;;25.10;;
59824;SDS011;45703;50.898;6.054;2022-08-19T06:18:13;37.08;;;24.23;;
59824;SDS011;45703;50.898;6.054;2022-08-19T06:20:40;36.70;;;23.58;;
59824;SDS011;45703;50.898;6.054;2022-08-19T06:23:06;35.25;;;23.77;;
59824;SDS011;45703;50.898;6.054;2022-08-19T06:25:31;33.70;;;21.85;;
59824;SDS011;45703;50.898;6.054;2022-08-19T06:27:57;34.60;;;22.23;;
59824;SDS011;45703;50.898;6.054;2022-08-19T06:30:22;34.28;;;21.70;;
59824;SDS011;45703;50.898;6.054;2022-08-19T06:32:47;30.80;;;20.13;;
59824;SDS011;45703;50.898;6.054;2022-08-19T06:35:13;35.35;;;22.38;;
59824;SDS011;45703;50.898;6.054;2022-08-19T06:37:39;32.83;;;22.05;;
59824;SDS011;45703;50.898;6.054;2022-08-19T06:40:05;29.98;;;19.85;;
59824;SDS011;45703;50.898;6.054;2022-08-19T06:42:33;34.42;;;21.17;;
59824;SDS011;45703;50.898;6.054;2022-08-19T06:45:03;37.08;;;22.05;;
59824;SDS011;45703;50.898;6.054;2022-08-19T06:47:29;32.53;;;20.48;;
59824;SDS011;45703;50.898;6.054;2022-08-19T06:49:57;32.22;;;20.95;;
59824;SDS011;45703;50.898;6.054;2022-08-19T06:52:32;31.92;;;20.45;;
59824;SDS011;45703;50.898;6.054;2022-08-19T06:57:24;34.22;;;21.10;;
59824;SDS011;45703;50.898;6.054;2022-08-19T06:59:51;34.88;;;22.23;;
59824;SDS011;45703;50.898;6.054;2022-08-19T07:02:16;32.97;;;21.98;;
59824;SDS011;45703;50.898;6.054;2022-08-19T07:04:46;33.53;;;22.27;;
59824;SDS011;45703;50.898;6.054;2022-08-19T07:07:13;33.60;;;22.58;;
59824;SDS011;45703;50.898;6.054;2022-08-19T07:09:41;35.08;;;22.65;;
59824;SDS011;45703;50.898;6.054;2022-08-19T07:12:09;35.88;;;22.60;;
59824;SDS011;45703;50.898;6.054;2022-08-19T07:14:36;38.85;;;23.27;;
59824;SDS011;45703;50.898;6.054;2022-08-19T07:17:03;39.40;;;25.85;;
59824;SDS011;45703;50.898;6.054;2022-08-19T07:19:31;38.35;;;24.02;;
59824;SDS011;45703;50.898;6.054;2022-08-19T07:21:57;37.10;;;23.13;;
59824;SDS011;45703;50.898;6.054;2022-08-19T07:24:26;40.00;;;25.98;;
59824;SDS011;45703;50.898;6.054;2022-08-19T07:26:55;39.08;;;25.63;;
59824;SDS011;45703;50.898;6.054;2022-08-19T07:29:25;42.88;;;26.25;;
59824;SDS011;45703;50.898;6.054;2022-08-19T07:31:52;39.13;;;25.52;;
59824;SDS011;45703;50.898;6.054;2022-08-19T07:34:20;37.28;;;24.95;;
59824;SDS011;45703;50.898;6.054;2022-08-19T07:36:46;36.05;;;24.20;;
59824;SDS011;45703;50.898;6.054;2022-08-19T07:39:17;35.17;;;23.52;;
59824;SDS011;45703;50.898;6.054;2022-08-19T07:41:45;37.00;;;23.25;;
59824;SDS011;45703;50.898;6.054;2022-08-19T07:44:11;34.58;;;23.50;;
59824;SDS011;45703;50.898;6.054;2022-08-19T07:46:39;36.00;;;23.33;;
59824;SDS011;45703;50.898;6.054;2022-08-19T07:49:06;34.88;;;22.55;;
59824;SDS011;45703;50.898;6.054;2022-08-19T07:51:33;34.90;;;22.95;;
59824;SDS011;45703;50.898;6.054;2022-08-19T07:53:59;33.75;;;21.23;;
59824;SDS011;45703;50.898;6.054;2022-08-19T07:56:25;33.58;;;21.98;;
59824;SDS011;45703;50.898;6.054;2022-08-19T07:58:51;35.20;;;22.52;;
59824;SDS011;45703;50.898;6.054;2022-08-19T08:01:22;32.55;;;22.30;;
59824;SDS011;45703;50.898;6.054;2022-08-19T08:03:51;31.23;;;20.67;;
59824;SDS011;45703;50.898;6.054;2022-08-19T08:06:36;29.88;;;19.85;;
59824;SDS011;45703;50.898;6.054;2022-08-19T08:09:23;31.83;;;19.90;;
59824;SDS011;45703;50.898;6.054;2022-08-19T08:11:59;27.85;;;18.42;;
59824;SDS011;45703;50.898;6.054;2022-08-19T08:14:28;25.05;;;17.65;;
59824;SDS011;45703;50.898;6.054;2022-08-19T08:16:56;27.75;;;18.35;;
59824;SDS011;45703;50.898;6.054;2022-08-19T08:19:22;26.98;;;17.38;;
59824;SDS011;45703;50.898;6.054;2022-08-19T08:21:50;25.92;;;16.67;;
59824;SDS011;45703;50.898;6.054;2022-08-19T08:24:16;25.30;;;16.35;;
59824;SDS011;45703;50.898;6.054;2022-08-19T08:26:42;25.27;;;16.55;;
59824;SDS011;45703;50.898;6.054;2022-08-19T08:29:09;24.75;;;17.88;;
59824;SDS011;45703;50.898;6.054;2022-08-19T08:31:37;25.60;;;17.60;;
59824;SDS011;45703;50.898;6.054;2022-08-19T08:34:03;27.77;;;18.02;;
59824;SDS011;45703;50.898;6.054;2022-08-19T08:36:29;25.38;;;17.27;;
59824;SDS011;45703;50.898;6.054;2022-08-19T08:38:58;23.38;;;15.10;;
59824;SDS011;45703;50.898;6.054;2022-08-19T08:44:20;22.63;;;13.90;;
59824;SDS011;45703;50.898;6.054;2022-08-19T08:54:33;17.73;;;10.80;;
59824;SDS011;45703;50.898;6.054;2022-08-19T08:57:09;21.10;;;12.63;;
59824;SDS011;45703;50.898;6.054;2022-08-19T08:59:57;18.15;;;12.02;;
59824;SDS011;45703;50.898;6.054;2022-08-19T09:02:25;18.90;;;11.52;;
59824;SDS011;45703;50.898;6.054;2022-08-19T09:04:51;17.67;;;10.85;;
59824;SDS011;45703;50.898;6.054;2022-08-19T09:10:55;18.02;;;10.55;;
59824;SDS011;45703;50.898;6.054;2022-08-19T09:13:11;16.02;;;9.95;;
59824;SDS011;45703;50.898;6.054;2022-08-19T09:15:40;13.45;;;8.50;;
59824;SDS011;45703;50.898;6.054;2022-08-19T09:18:10;14.98;;;8.90;;
59824;SDS011;45703;50.898;6.054;2022-08-19T09:20:36;14.98;;;8.75;;
59824;SDS011;45703;50.898;6.054;2022-08-19T09:23:02;18.00;;;10.35;;
59824;SDS011;45703;50.898;6.054;2022-08-19T09:25:28;16.60;;;10.65;;
59824;SDS011;45703;50.898;6.054;2022-08-19T09:27:55;16.67;;;10.05;;
59824;SDS011;45703;50.898;6.054;2022-08-19T09:30:23;15.95;;;10.27;;
59824;SDS011;45703;50.898;6.054;2022-08-19T09:32:50;18.30;;;10.90;;
59824;SDS011;45703;50.898;6.054;2022-08-19T09:35:18;16.55;;;10.55;;
59824;SDS011;45703;50.898;6.054;2022-08-19T09:37:44;19.52;;;12.40;;
59824;SDS011;45703;50.898;6.054;2022-08-19T09:40:10;20.27;;;13.02;;
59824;SDS011;45703;50.898;6.054;2022-08-19T09:42:36;19.83;;;12.77;;
59824;SDS011;45703;50.898;6.054;2022-08-19T09:45:02;23.85;;;14.27;;
59824;SDS011;45703;50.898;6.054;2022-08-19T09:47:28;23.27;;;14.38;;
59824;SDS011;45703;50.898;6.054;2022-08-19T09:49:54;22.92;;;14.48;;
59824;SDS011;45703;50.898;6.054;2022-08-19T09:52:20;19.38;;;13.27;;
59824;SDS011;45703;50.898;6.054;2022-08-19T09:54:45;27.08;;;16.00;;
59824;SDS011;45703;50.898;6.054;2022-08-19T09:57:11;29.10;;;17.50;;
59824;SDS011;45703;50.898;6.054;2022-08-19T09:59:36;25.45;;;16.92;;
59824;SDS011;45703;50.898;6.054;2022-08-19T10:02:03;25.25;;;16.70;;
59824;SDS011;45703;50.898;6.054;2022-08-19T10:04:28;24.95;;;16.80;;
59824;SDS011;45703;50.898;6.054;2022-08-19T10:07:12;23.13;;;15.93;;
59824;SDS011;45703;50.898;6.054;2022-08-19T10:09:38;24.90;;;16.67;;
59824;SDS011;45703;50.898;6.054;2022-08-19T10:12:05;23.17;;;15.32;;
59824;SDS011;45703;50.898;6.054;2022-08-19T10:14:32;25.40;;;15.48;;
59824;SDS011;45703;50.898;6.054;2022-08-19T10:16:57;22.35;;;14.80;;
59824;SDS011;45703;50.898;6.054;2022-08-19T10:19:25;20.17;;;12.95;;
59824;SDS011;45703;50.898;6.054;2022-08-19T10:21:54;21.60;;;13.10;;
59824;SDS011;45703;50.898;6.054;2022-08-19T10:24:20;22.13;;;13.77;;
59824;SDS011;45703;50.898;6.054;2022-08-19T10:26:49;23.55;;;15.30;;
59824;SDS011;45703;50.898;6.054;2022-08-19T10:29:14;20.75;;;13.10;;
59824;SDS011;45703;50.898;6.054;2022-08-19T10:31:41;22.92;;;14.13;;
59824;SDS011;45703;50.898;6.054;2022-08-19T10:34:07;22.08;;;13.57;;
59824;SDS011;45703;50.898;6.054;2022-08-19T10:36:34;23.00;;;14.02;;
59824;SDS011;45703;50.898;6.054;2022-08-19T10:39:02;24.77;;;15.00;;
59824;SDS011;45703;50.898;6.054;2022-08-19T10:41:33;23.95;;;14.23;;
59824;SDS011;45703;50.898;6.054;2022-08-19T10:44:03;21.17;;;12.95;;
59824;SDS011;45703;50.898;6.054;2022-08-19T10:46:34;23.98;;;14.38;;
59824;SDS011;45703;50.898;6.054;2022-08-19T10:49:02;23.17;;;15.45;;
59824;SDS011;45703;50.898;6.054;2022-08-19T10:51:29;24.05;;;14.82;;
59824;SDS011;45703;50.898;6.054;2022-08-19T10:54:13;26.02;;;15.73;;
59824;SDS011;45703;50.898;6.054;2022-08-19T10:56:39;24.63;;;15.50;;
59824;SDS011;45703;50.898;6.054;2022-08-19T10:59:18;25.73;;;15.88;;
59824;SDS011;45703;50.898;6.054;2022-08-19T11:01:54;24.92;;;15.68;;
59824;SDS011;45703;50.898;6.054;2022-08-19T11:04:24;25.15;;;17.38;;
59824;SDS011;45703;50.898;6.054;2022-08-19T11:06:49;26.80;;;15.50;;
59824;SDS011;45703;50.898;6.054;2022-08-19T11:09:19;24.35;;;14.85;;
59824;SDS011;45703;50.898;6.054;2022-08-19T11:11:49;24.38;;;16.30;;
59824;SDS011;45703;50.898;6.054;2022-08-19T11:14:16;24.23;;;15.30;;
59824;SDS011;45703;50.898;6.054;2022-08-19T11:16:46;21.23;;;14.10;;
59824;SDS011;45703;50.898;6.054;2022-08-19T11:19:16;20.52;;;13.50;;
59824;SDS011;45703;50.898;6.054;2022-08-19T11:21:44;21.25;;;13.57;;
59824;SDS011;45703;50.898;6.054;2022-08-19T11:24:19;25.38;;;16.77;;
59824;SDS011;45703;50.898;6.054;2022-08-19T11:26:47;23.08;;;15.98;;
59824;SDS011;45703;50.898;6.054;2022-08-19T11:29:14;20.90;;;14.27;;
59824;SDS011;45703;50.898;6.054;2022-08-19T11:31:42;22.42;;;14.70;;
59824;SDS011;45703;50.898;6.054;2022-08-19T11:34:10;19.95;;;13.45;;
59824;SDS011;45703;50.898;6.054;2022-08-19T11:36:39;19.08;;;13.63;;
59824;SDS011;45703;50.898;6.054;2022-08-19T11:39:08;22.90;;;16.45;;
59824;SDS011;45703;50.898;6.054;2022-08-19T11:41:35;22.50;;;15.68;;
59824;SDS011;45703;50.898;6.054;2022-08-19T11:44:00;19.83;;;14.95;;
59824;SDS011;45703;50.898;6.054;2022-08-19T11:46:28;19.48;;;13.45;;
59824;SDS011;45703;50.898;6.054;2022-08-19T11:48:54;17.55;;;11.95;;
59824;SDS011;45703;50.898;6.054;2022-08-19T11:51:23;15.25;;;11.07;;
59824;SDS011;45703;50.898;6.054;2022-08-19T11:53:49;16.25;;;11.70;;
59824;SDS011;45703;50.898;6.054;2022-08-19T11:56:16;18.00;;;11.20;;
59824;SDS011;45703;50.898;6.054;2022-08-19T11:58:43;17.55;;;11.18;;
59824;SDS011;45703;50.898;6.054;2022-08-19T12:01:09;17.17;;;11.45;;
59824;SDS011;45703;50.898;6.054;2022-08-19T12:03:37;15.98;;;9.60;;
59824;SDS011;45703;50.898;6.054;2022-08-19T12:06:10;15.07;;;10.07;;
59824;SDS011;45703;50.898;6.054;2022-08-19T12:08:38;14.00;;;9.07;;
59824;SDS011;45703;50.898;6.054;2022-08-19T12:11:04;16.10;;;9.43;;
59824;SDS011;45703;50.898;6.054;2022-08-19T12:13:32;12.93;;;7.55;;
59824;SDS011;45703;50.898;6.054;2022-08-19T12:15:58;12.90;;;6.80;;
59824;SDS011;45703;50.898;6.054;2022-08-19T12:18:24;10.30;;;6.30;;
59824;SDS011;45703;50.898;6.054;2022-08-19T12:20:51;12.02;;;6.63;;
59824;SDS011;45703;50.898;6.054;2022-08-19T12:23:18;12.10;;;6.45;;
59824;SDS011;45703;50.898;6.054;2022-08-19T12:25:44;9.73;;;4.93;;
59824;SDS011;45703;50.898;6.054;2022-08-19T12:28:15;10.20;;;5.68;;
59824;SDS011;45703;50.898;6.054;2022-08-19T12:30:41;11.52;;;5.43;;
59824;SDS011;45703;50.898;6.054;2022-08-19T12:33:06;11.13;;;4.85;;
59824;SDS011;45703;50.898;6.054;2022-08-19T12:35:32;9.75;;;4.60;;
59824;SDS011;45703;50.898;6.054;2022-08-19T12:37:58;9.25;;;4.60;;
59824;SDS011;45703;50.898;6.054;2022-08-19T12:40:24;8.63;;;4.45;;
59824;SDS011;45703;50.898;6.054;2022-08-19T12:42:50;9.55;;;4.50;;
59824;SDS011;45703;50.898;6.054;2022-08-19T12:45:16;8.73;;;4.43;;
59824;SDS011;45703;50.898;6.054;2022-08-19T12:47:41;10.20;;;4.50;;
59824;SDS011;45703;50.898;6.054;2022-08-19T12:50:09;8.93;;;3.90;;
59824;SDS011;45703;50.898;6.054;2022-08-19T12:52:35;9.48;;;4.43;;
59824;SDS011;45703;50.898;6.054;2022-08-19T12:55:07;9.30;;;4.47;;
59824;SDS011;45703;50.898;6.054;2022-08-19T12:57:34;8.88;;;3.97;;
59824;SDS011;45703;50.898;6.054;2022-08-19T13:00:02;8.70;;;4.43;;
59824;SDS011;45703;50.898;6.054;2022-08-19T13:02:38;10.45;;;4.50;;
59824;SDS011;45703;50.898;6.054;2022-08-19T13:05:19;8.95;;;4.43;;
59824;SDS011;45703;50.898;6.054;2022-08-19T13:07:48;7.85;;;3.45;;
59824;SDS011;45703;50.898;6.054;2022-08-19T13:10:31;8.50;;;4.05;;
59824;SDS011;45703;50.898;6.054;2022-08-19T13:13:02;7.50;;;3.28;;
59824;SDS011;45703;50.898;6.054;2022-08-19T13:15:36;7.32;;;3.85;;
59824;SDS011;45703;50.898;6.054;2022-08-19T13:18:05;8.40;;;3.45;;
59824;SDS011;45703;50.898;6.054;2022-08-19T13:20:31;7.20;;;3.85;;
59824;SDS011;45703;50.898;6.054;2022-08-19T13:22:57;8.73;;;3.65;;
59824;SDS011;45703;50.898;6.054;2022-08-19T13:25:22;8.60;;;3.60;;
59824;SDS011;45703;50.898;6.054;2022-08-19T13:27:48;10.75;;;4.18;;
59824;SDS011;45703;50.898;6.054;2022-08-19T13:30:16;8.55;;;3.80;;
59824;SDS011;45703;50.898;6.054;2022-08-19T13:33:01;8.68;;;3.47;;
59824;SDS011;45703;50.898;6.054;2022-08-19T13:38:19;7.38;;;3.13;;
59824;SDS011;45703;50.898;6.054;2022-08-19T13:43:11;7.28;;;2.83;;
59824;SDS011;45703;50.898;6.054;2022-08-19T13:45:37;7.68;;;2.92;;
59824;SDS011;45703;50.898;6.054;2022-08-19T13:48:03;7.22;;;3.00;;
59824;SDS011;45703;50.898;6.054;2022-08-19T13:50:35;7.32;;;2.78;;
59824;SDS011;45703;50.898;6.054;2022-08-19T13:53:06;6.10;;;2.60;;
59824;SDS011;45703;50.898;6.054;2022-08-19T13:55:33;6.68;;;2.47;;
59824;SDS011;45703;50.898;6.054;2022-08-19T13:58:00;6.32;;;2.55;;
59824;SDS011;45703;50.898;6.054;2022-08-19T14:00:31;6.65;;;2.67;;
59824;SDS011;45703;50.898;6.054;2022-08-19T14:02:59;7.15;;;2.92;;
59824;SDS011;45703;50.898;6.054;2022-08-19T14:05:25;6.57;;;2.60;;
59824;SDS011;45703;50.898;6.054;2022-08-19T14:07:52;6.57;;;2.72;;
59824;SDS011;45703;50.898;6.054;2022-08-19T14:10:18;5.93;;;2.75;;
59824;SDS011;45703;50.898;6.054;2022-08-19T14:12:44;6.80;;;2.45;;
59824;SDS011;45703;50.898;6.054;2022-08-19T14:15:10;6.72;;;2.60;;
59824;SDS011;45703;50.898;6.054;2022-08-19T14:17:40;7.78;;;2.85;;
59824;SDS011;45703;50.898;6.054;2022-08-19T14:20:11;5.55;;;2.10;;
59824;SDS011;45703;50.898;6.054;2022-08-19T14:22:38;8.02;;;2.47;;
59824;SDS011;45703;50.898;6.054;2022-08-19T14:25:10;6.32;;;2.80;;
59824;SDS011;45703;50.898;6.054;2022-08-19T14:27:37;6.18;;;2.28;;
59824;SDS011;45703;50.898;6.054;2022-08-19T14:30:05;7.47;;;2.90;;
59824;SDS011;45703;50.898;6.054;2022-08-19T14:32:35;5.97;;;2.50;;
59824;SDS011;45703;50.898;6.054;2022-08-19T14:35:01;6.85;;;2.60;;
59824;SDS011;45703;50.898;6.054;2022-08-19T14:37:27;7.10;;;2.40;;
59824;SDS011;45703;50.898;6.054;2022-08-19T14:39:52;6.95;;;3.10;;
59824;SDS011;45703;50.898;6.054;2022-08-19T14:42:18;7.15;;;3.03;;
59824;SDS011;45703;50.898;6.054;2022-08-19T14:44:44;7.63;;;3.50;;
59824;SDS011;45703;50.898;6.054;2022-08-19T14:47:09;7.75;;;3.17;;
59824;SDS011;45703;50.898;6.054;2022-08-19T14:49:35;7.18;;;3.50;;
59824;SDS011;45703;50.898;6.054;2022-08-19T14:52:00;10.48;;;3.42;;